createdAt,value
2018-06-10T00:01:00.600Z,25.70
2018-06-10T00:03:29.084Z,39.00
2018-06-10T00:05:57.680Z,25.27
2018-06-10T00:08:26.179Z,26.40
2018-06-10T00:10:54.649Z,28.93
2018-06-10T00:13:23.163Z,32.40
2018-06-10T00:15:51.619Z,35.00
2018-06-10T00:18:20.077Z,36.80
2018-06-10T00:20:48.563Z,37.50
2018-06-10T00:23:17.049Z,39.77
2018-06-10T00:25:45.535Z,42.00
2018-06-10T00:28:14.139Z,44.57
2018-06-10T00:30:42.575Z,40.93
2018-06-10T00:33:11.108Z,36.33
2018-06-10T00:35:39.279Z,35.37
2018-06-10T00:38:07.427Z,38.17
2018-06-10T00:40:35.903Z,42.93
2018-06-10T00:43:04.387Z,39.43
2018-06-10T00:45:32.972Z,39.00
2018-06-10T00:48:01.588Z,37.17
2018-06-10T00:50:29.788Z,37.50
2018-06-10T00:52:58.229Z,34.53
2018-06-10T00:55:26.695Z,37.50
2018-06-10T00:57:55.167Z,39.23
2018-06-10T01:00:23.686Z,34.07
2018-06-10T01:02:51.858Z,35.73
2018-06-10T01:05:20.020Z,34.97
2018-06-10T01:07:48.499Z,40.33
2018-06-10T01:10:16.983Z,42.20
2018-06-10T01:12:45.465Z,40.70
2018-06-10T01:15:14.972Z,43.73
2018-06-10T01:17:43.435Z,44.43
2018-06-10T01:20:11.919Z,41.77
2018-06-10T01:22:40.412Z,37.50
2018-06-10T01:25:08.908Z,35.40
2018-06-10T01:27:37.397Z,30.97
2018-06-10T01:30:05.531Z,28.70
2018-06-10T01:32:33.995Z,27.77
2018-06-10T01:35:02.411Z,26.10
2018-06-10T01:37:30.892Z,19.87
2018-06-10T01:39:59.360Z,23.00
2018-06-10T01:42:27.835Z,20.90
2018-06-10T01:44:56.455Z,18.83
2018-06-10T01:47:24.895Z,20.67
2018-06-10T01:49:53.416Z,22.53
2018-06-10T01:52:21.868Z,25.33
2018-06-10T01:54:50.347Z,25.93
2018-06-10T01:57:18.831Z,27.20
2018-06-10T01:59:47.343Z,25.50
2018-06-10T02:02:15.876Z,28.23
2018-06-10T02:04:44.387Z,28.60
2018-06-10T02:07:12.896Z,28.70
2018-06-10T02:09:41.324Z,31.60
2018-06-10T02:12:10.155Z,29.43
2018-06-10T02:14:38.640Z,26.57
2018-06-10T02:17:07.135Z,29.00
2018-06-10T02:19:35.567Z,27.90
2018-06-10T02:22:04.104Z,30.43
2018-06-10T02:24:32.593Z,32.03
2018-06-10T02:27:00.794Z,31.83
2018-06-10T02:29:29.312Z,31.90
2018-06-10T02:31:57.803Z,38.60
2018-06-10T02:34:26.279Z,36.57
2018-06-10T02:36:54.760Z,38.33
2018-06-10T02:39:23.247Z,39.83
2018-06-10T02:41:51.723Z,36.17
2018-06-10T02:44:20.192Z,36.47
2018-06-10T02:46:48.660Z,40.67
2018-06-10T02:49:17.165Z,44.97
2018-06-10T02:51:45.660Z,43.33
2018-06-10T02:54:14.109Z,45.20
2018-06-10T02:56:42.647Z,46.53
2018-06-10T02:59:10.794Z,48.13
2018-06-10T03:01:39.246Z,46.40
2018-06-10T03:04:07.736Z,43.77
2018-06-10T03:06:36.251Z,44.47
2018-06-10T03:09:06.647Z,41.30
2018-06-10T03:11:35.062Z,43.67
2018-06-10T03:14:03.519Z,43.47
2018-06-10T03:16:32.075Z,43.67
2018-06-10T03:19:00.609Z,46.17
2018-06-10T03:21:29.072Z,49.00
2018-06-10T03:23:57.571Z,51.17
2018-06-10T03:26:26.024Z,48.13
2018-06-10T03:28:54.503Z,50.13
2018-06-10T03:31:23.015Z,48.70
2018-06-10T03:33:51.542Z,40.90
2018-06-10T03:36:20.055Z,40.17
2018-06-10T03:38:48.551Z,42.97
2018-06-10T03:41:17.007Z,42.60
2018-06-10T03:43:45.512Z,42.07
2018-06-10T03:46:13.996Z,39.17
2018-06-10T03:48:42.455Z,40.00
2018-06-10T03:51:10.959Z,37.53
2018-06-10T03:53:39.498Z,38.43
2018-06-10T03:56:08.081Z,37.40
2018-06-10T03:58:36.665Z,37.83
2018-06-10T04:01:05.249Z,35.50
2018-06-10T04:03:33.759Z,35.10
2018-06-10T04:06:02.300Z,38.27
2018-06-10T04:08:30.719Z,34.20
2018-06-10T04:10:59.219Z,34.87
2018-06-10T04:13:27.861Z,37.50
2018-06-10T04:15:56.400Z,37.90
2018-06-10T04:18:24.856Z,40.77
2018-06-10T04:20:53.333Z,36.80
2018-06-10T04:23:21.826Z,39.47
2018-06-10T04:25:50.291Z,41.40
2018-06-10T04:35:27.239Z,33.00
2018-06-10T04:37:55.702Z,28.40
2018-06-10T04:41:28.752Z,25.53
2018-06-10T04:43:57.194Z,27.37
2018-06-10T04:46:25.687Z,27.73
2018-06-10T04:48:54.143Z,28.60
2018-06-10T04:51:22.640Z,26.27
2018-06-10T04:53:51.095Z,23.60
2018-06-10T04:56:19.652Z,22.90
2018-06-10T04:58:47.787Z,20.40
2018-06-10T05:01:16.397Z,21.10
2018-06-10T05:03:44.842Z,20.37
2018-06-10T05:06:13.315Z,21.00
2018-06-10T05:08:42.842Z,21.57
2018-06-10T05:11:11.302Z,22.07
2018-06-10T05:13:39.835Z,22.23
2018-06-10T05:16:07.998Z,20.90
2018-06-10T05:18:36.472Z,21.50
2018-06-10T05:21:04.931Z,23.23
2018-06-10T05:23:33.408Z,20.80
2018-06-10T05:26:01.893Z,20.73
2018-06-10T05:28:30.380Z,21.40
2018-06-10T05:30:58.868Z,23.13
2018-06-10T05:33:27.346Z,22.10
2018-06-10T05:35:55.856Z,20.33
2018-06-10T05:38:24.012Z,19.23
2018-06-10T05:40:52.486Z,20.30
2018-06-10T05:43:20.967Z,20.37
2018-06-10T05:45:49.459Z,22.30
2018-06-10T05:48:17.973Z,22.20
2018-06-10T05:50:46.395Z,24.27
2018-06-10T05:53:14.907Z,24.03
2018-06-10T05:55:43.403Z,23.63
2018-06-10T05:58:11.574Z,23.60
2018-06-10T06:00:40.023Z,30.97
2018-06-10T06:03:08.504Z,27.33
2018-06-10T06:05:36.952Z,28.07
2018-06-10T06:08:05.759Z,28.80
2018-06-10T06:10:34.259Z,20.83
2018-06-10T06:13:03.157Z,22.43
2018-06-10T06:15:31.675Z,21.70
2018-06-10T06:17:59.834Z,25.90
2018-06-10T06:20:28.295Z,28.27
2018-06-10T06:22:56.839Z,27.53
2018-06-10T06:25:25.396Z,25.27
2018-06-10T06:27:53.579Z,25.60
2018-06-10T06:30:22.345Z,26.60
2018-06-10T06:32:50.803Z,30.17
2018-06-10T06:35:19.359Z,41.03
2018-06-10T06:37:47.904Z,31.13
2018-06-10T06:40:16.083Z,35.70
2018-06-10T06:42:44.258Z,36.87
2018-06-10T06:45:12.414Z,41.70
2018-06-10T06:47:40.983Z,41.10
2018-06-10T06:50:09.484Z,38.27
2018-06-10T06:52:37.801Z,37.03
2018-06-10T06:55:06.232Z,33.13
2018-06-10T06:57:34.720Z,33.30
2018-06-10T07:00:03.267Z,34.67
2018-06-10T07:02:31.850Z,33.00
2018-06-10T07:05:00.331Z,34.97
2018-06-10T07:07:28.856Z,35.93
2018-06-10T07:09:57.520Z,37.77
2018-06-10T07:12:26.031Z,36.37
2018-06-10T07:14:54.197Z,38.20
2018-06-10T07:17:22.664Z,35.60
2018-06-10T07:19:51.149Z,33.83
2018-06-10T07:22:19.607Z,32.97
2018-06-10T07:24:49.148Z,31.27
2018-06-10T07:27:17.644Z,28.17
2018-06-10T07:29:45.830Z,31.37
2018-06-10T07:32:14.256Z,28.03
2018-06-10T07:34:42.750Z,30.90
2018-06-10T07:37:11.293Z,35.27
2018-06-10T07:39:39.809Z,33.50
2018-06-10T07:42:08.336Z,49.57
2018-06-10T07:44:36.527Z,53.83
2018-06-10T07:47:05.156Z,51.57
2018-06-10T07:49:33.647Z,51.73
2018-06-10T07:52:02.185Z,48.40
2018-06-10T07:54:30.779Z,41.40
2018-06-10T07:56:59.320Z,48.63
2018-06-10T07:59:27.498Z,46.73
2018-06-10T08:01:55.960Z,48.27
2018-06-10T08:04:24.528Z,44.87
2018-06-10T08:06:53.044Z,51.37
2018-06-10T08:09:21.230Z,47.77
2018-06-10T08:11:49.788Z,53.27
2018-06-10T08:14:18.292Z,54.47
2018-06-10T08:16:46.731Z,55.70
2018-06-10T08:19:15.265Z,58.30
2018-06-10T08:21:44.881Z,60.40
2018-06-10T08:24:13.423Z,59.63
2018-06-10T08:26:41.907Z,61.83
2018-06-10T08:29:10.599Z,73.03
2018-06-10T08:31:39.036Z,76.23
2018-06-10T08:34:07.682Z,76.67
2018-06-10T08:36:35.845Z,64.57
2018-06-10T08:39:06.087Z,70.63
2018-06-10T08:41:34.591Z,68.70
2018-06-10T08:44:03.253Z,71.30
2018-06-10T08:46:31.722Z,69.20
2018-06-10T08:49:00.143Z,66.07
2018-06-10T08:51:28.751Z,66.63
2018-06-10T08:53:57.496Z,61.40
2018-06-10T08:56:26.012Z,60.77
2018-06-10T08:58:54.495Z,71.67
2018-06-10T09:01:23.016Z,70.80
2018-06-10T09:03:51.199Z,65.33
2018-06-10T09:06:19.385Z,68.10
2018-06-10T09:08:48.501Z,68.00
2018-06-10T09:11:18.072Z,68.23
2018-06-10T09:13:46.348Z,77.50
2018-06-10T09:16:14.646Z,72.93
2018-06-10T09:18:43.128Z,72.07
2018-06-10T09:21:11.286Z,70.17
2018-06-10T09:23:39.455Z,73.50
2018-06-10T09:26:07.665Z,72.27
2018-06-10T10:38:23.012Z,76.53
2018-06-10T10:40:51.471Z,68.83
2018-06-10T10:43:19.678Z,75.30
2018-06-10T10:45:48.307Z,68.33
2018-06-10T10:48:16.795Z,71.43
2018-06-10T10:50:45.279Z,71.27
2018-06-10T10:53:13.751Z,65.67
2018-06-10T10:55:42.251Z,69.50
2018-06-10T10:58:11.465Z,65.13
2018-06-10T11:00:39.667Z,64.00
2018-06-10T11:03:08.184Z,66.40
2018-06-10T11:05:36.695Z,72.60
2018-06-10T11:08:05.261Z,70.27
2018-06-10T11:10:33.848Z,81.37
2018-06-10T11:13:02.360Z,72.80
2018-06-10T11:15:30.923Z,71.23
2018-06-10T11:17:59.383Z,78.27
2018-06-10T11:20:27.972Z,79.10
2018-06-10T11:22:56.479Z,73.10
2018-06-10T11:25:24.940Z,72.30
